Time;durP1;ratioP1;P1;durP2;ratioP2;P2;SDS_P1;SDS_P2;PMS_P1;PMS_P2;Temp;Humidity;BMP_temperature;BMP_pressure;BME280_temperature;BME280_humidity;BME280_pressure;Samples;Min_cycle;Max_cycle;Signal;HPM_P1;HPM_P2
2022/12/22 03:26:45;;;;;;;31.25;16.02;;;10.00;81.70;;;;;;2627135;52;21066;-52
2022/12/22 03:29:13;;;;;;;28.90;15.15;;;10.10;81.70;;;;;;2373801;56;21031;-53
2022/12/22 03:31:40;;;;;;;23.30;13.48;;;10.00;81.70;;;;;;2372939;56;21011;-53
2022/12/22 03:34:07;;;;;;;25.98;14.05;;;10.10;81.80;;;;;;2373705;56;21521;-52
2022/12/22 03:36:34;;;;;;;23.58;13.45;;;10.00;81.70;;;;;;2373154;56;21362;-49
2022/12/22 03:39:02;;;;;;;24.85;14.45;;;10.10;81.80;;;;;;2373048;56;21055;-51
2022/12/22 03:47:00;;;;;;;20.05;11.57;;;10.10;81.60;;;;;;2373111;56;21038;-52
2022/12/22 03:49:27;;;;;;;18.70;10.05;;;10.10;81.50;;;;;;2373550;56;21111;-53
2022/12/22 03:51:54;;;;;;;19.65;11.80;;;10.10;81.60;;;;;;2373397;56;21027;-51
2022/12/22 03:54:23;;;;;;;18.37;11.20;;;10.10;81.60;;;;;;2372657;56;21642;-52
2022/12/22 03:56:51;;;;;;;19.52;10.98;;;10.10;81.50;;;;;;2373435;56;21523;-54
2022/12/22 03:59:19;;;;;;;17.45;10.70;;;10.20;81.60;;;;;;2373160;56;21078;-56
2022/12/22 04:01:49;;;;;;;16.10;10.20;;;10.20;81.50;;;;;;2373068;56;21022;-52
2022/12/22 04:04:18;;;;;;;15.85;10.57;;;10.20;81.50;;;;;;2373499;56;21598;-51
2022/12/22 04:06:45;;;;;;;15.52;9.73;;;10.20;81.40;;;;;;2373971;56;21090;-52
2022/12/22 04:09:13;;;;;;;14.45;9.85;;;10.20;81.40;;;;;;2374570;56;21015;-53
2022/12/22 04:14:26;;;;;;;13.70;9.23;;;10.20;81.40;;;;;;2626065;52;20974;-53
2022/12/22 04:16:53;;;;;;;17.75;10.00;;;10.30;81.40;;;;;;2373395;56;21621;-51
2022/12/22 04:19:20;;;;;;;18.30;9.82;;;10.20;81.40;;;;;;2373692;56;21035;-54
2022/12/22 04:21:47;;;;;;;14.90;9.70;;;10.20;81.30;;;;;;2372495;56;21031;-52
2022/12/22 04:24:14;;;;;;;12.73;8.35;;;10.30;81.50;;;;;;2373689;56;21086;-52
2022/12/22 04:26:42;;;;;;;13.35;8.23;;;10.20;81.30;;;;;;2373495;56;21169;-55
2022/12/22 04:29:09;;;;;;;16.20;9.55;;;10.20;81.30;;;;;;2373935;56;21018;-55
2022/12/22 04:31:36;;;;;;;12.45;8.68;;;10.30;81.50;;;;;;2372207;56;21118;-51
2022/12/22 04:34:03;;;;;;;12.48;8.05;;;10.30;81.50;;;;;;2373452;56;21022;-50
2022/12/22 04:36:30;;;;;;;13.15;8.73;;;10.20;81.50;;;;;;2373397;56;21035;-52
2022/12/22 04:38:57;;;;;;;13.70;8.63;;;10.30;81.50;;;;;;2373563;56;21475;-51
2022/12/22 04:41:24;;;;;;;13.62;9.35;;;10.30;81.60;;;;;;2371864;56;21294;-55
2022/12/22 04:43:51;;;;;;;14.40;9.52;;;10.30;81.60;;;;;;2372627;56;21082;-54
2022/12/22 04:46:19;;;;;;;14.48;9.15;;;10.30;81.60;;;;;;2373484;56;21515;-50
2022/12/22 04:48:46;;;;;;;15.18;9.27;;;10.30;81.60;;;;;;2373620;56;21065;-51
2022/12/22 04:51:13;;;;;;;16.83;10.65;;;10.30;81.60;;;;;;2373710;56;21522;-52
2022/12/22 04:53:40;;;;;;;18.05;11.15;;;10.30;81.70;;;;;;2372609;56;21613;-56
2022/12/22 04:56:08;;;;;;;14.93;10.15;;;10.30;81.70;;;;;;2373237;56;21070;-51
2022/12/22 04:58:36;;;;;;;15.45;10.00;;;10.30;81.70;;;;;;2374776;56;21134;-55
2022/12/22 05:01:10;;;;;;;16.05;10.52;;;10.30;81.60;;;;;;2374448;56;21051;-50
2022/12/22 05:03:37;;;;;;;17.33;10.48;;;10.40;81.70;;;;;;2373258;56;21180;-50
2022/12/22 05:06:06;;;;;;;16.42;10.45;;;10.40;81.60;;;;;;2373482;56;21102;-51
2022/12/22 05:08:33;;;;;;;17.98;11.20;;;10.40;82.30;;;;;;2373063;56;21633;-53
2022/12/22 05:11:02;;;;;;;17.35;10.80;;;10.40;81.60;;;;;;2371918;56;21648;-52
2022/12/22 05:13:29;;;;;;;17.45;10.75;;;10.40;81.60;;;;;;2372380;56;21601;-48
2022/12/22 05:16:03;;;;;;;17.42;10.95;;;10.40;81.60;;;;;;2372631;56;21585;-52
2022/12/22 05:18:30;;;;;;;18.00;10.57;;;10.40;81.60;;;;;;2373540;56;21035;-55
2022/12/22 05:20:57;;;;;;;16.65;9.82;;;10.40;82.30;;;;;;2373392;56;21537;-49
2022/12/22 05:23:25;;;;;;;18.85;11.20;;;10.40;81.20;;;;;;2626585;52;21055;-50
2022/12/22 05:25:52;;;;;;;18.70;11.32;;;10.40;81.50;;;;;;2374028;56;21023;-50
2022/12/22 05:28:19;;;;;;;16.20;11.20;;;10.40;81.60;;;;;;2371149;56;21122;-51
2022/12/22 05:30:46;;;;;;;21.27;10.93;;;10.40;81.40;;;;;;2373398;56;21015;-53
2022/12/22 05:33:13;;;;;;;21.40;12.10;;;10.40;81.40;;;;;;2373140;56;21613;-52
2022/12/22 05:35:40;;;;;;;17.90;11.30;;;10.40;81.20;;;;;;2373655;56;21517;-48
2022/12/22 05:38:07;;;;;;;27.45;13.48;;;10.40;81.30;;;;;;2373296;56;21075;-51
2022/12/22 05:40:34;;;;;;;19.55;11.73;;;10.40;81.50;;;;;;2373803;56;21034;-48
2022/12/22 05:43:02;;;;;;;21.30;12.20;;;10.40;81.40;;;;;;2372941;56;21019;-54
2022/12/22 05:45:29;;;;;;;25.48;13.32;;;10.40;81.50;;;;;;2372147;56;22074;-48
2022/12/22 05:47:56;;;;;;;20.30;12.07;;;10.40;81.50;;;;;;2374786;56;21606;-54
2022/12/22 05:50:24;;;;;;;24.00;13.30;;;10.40;81.40;;;;;;2374623;56;21011;-54
2022/12/22 05:52:53;;;;;;;19.10;12.50;;;10.40;81.50;;;;;;2374990;56;21130;-54
2022/12/22 05:55:20;;;;;;;20.50;12.00;;;10.40;81.50;;;;;;2374437;56;21638;-52
2022/12/22 05:57:47;;;;;;;22.55;13.18;;;10.40;81.40;;;;;;2373277;56;21031;-51
2022/12/22 06:00:17;;;;;;;23.12;13.32;;;10.40;81.50;;;;;;2373625;56;21086;-49
2022/12/22 06:02:45;;;;;;;26.52;14.30;;;10.40;81.50;;;;;;2372793;56;21098;-50
2022/12/22 06:05:13;;;;;;;23.10;13.82;;;10.40;81.40;;;;;;2373745;56;21637;-49
2022/12/22 06:07:41;;;;;;;26.17;14.15;;;10.40;81.60;;;;;;2372678;56;21078;-50
2022/12/22 06:10:11;;;;;;;24.02;14.27;;;10.40;81.60;;;;;;2626303;52;21526;-51
2022/12/22 06:12:39;;;;;;;24.65;15.07;;;10.40;81.60;;;;;;2373987;56;21617;-50
2022/12/22 06:15:09;;;;;;;26.08;15.48;;;10.40;82.50;;;;;;2373767;56;21598;-50
2022/12/22 06:17:37;;;;;;;23.92;13.98;;;10.40;81.60;;;;;;2373955;56;21110;-48
2022/12/22 06:20:07;;;;;;;25.83;14.23;;;10.40;81.70;;;;;;2373746;56;21566;-56
2022/12/22 06:22:35;;;;;;;29.25;15.45;;;10.50;81.70;;;;;;2372775;56;21019;-55
2022/12/22 06:25:02;;;;;;;26.48;15.35;;;10.50;81.70;;;;;;2373084;56;21086;-48
2022/12/22 06:27:29;;;;;;;23.23;13.98;;;10.40;81.60;;;;;;2373510;56;21090;-52
2022/12/22 06:29:56;;;;;;;26.55;14.55;;;10.40;81.70;;;;;;2373694;56;21039;-54
2022/12/22 06:32:23;;;;;;;24.60;14.70;;;10.40;81.70;;;;;;2373369;56;21518;-49
2022/12/22 06:34:51;;;;;;;25.35;14.93;;;10.50;81.70;;;;;;2373794;56;21098;-49
2022/12/22 06:37:18;;;;;;;21.52;13.45;;;10.40;81.70;;;;;;2373167;56;21091;-48
2022/12/22 06:39:45;;;;;;;24.95;14.80;;;10.50;81.70;;;;;;2373149;56;21118;-51
2022/12/22 06:44:58;;;;;;;26.62;14.87;;;10.50;81.70;;;;;;2373596;56;21490;-54
2022/12/22 06:47:25;;;;;;;29.55;15.98;;;10.50;81.70;;;;;;2373633;56;21110;-51
2022/12/22 06:49:52;;;;;;;26.50;16.00;;;10.40;81.70;;;;;;2373341;56;21015;-50
2022/12/22 06:52:19;;;;;;;26.17;15.10;;;10.50;81.70;;;;;;2373308;56;21090;-52
2022/12/22 06:54:46;;;;;;;33.78;17.05;;;10.50;81.70;;;;;;2373314;56;21102;-51
2022/12/22 06:57:13;;;;;;;30.08;16.42;;;10.50;81.70;;;;;;2373066;56;21015;-52
2022/12/22 06:59:41;;;;;;;27.23;15.57;;;10.50;81.70;;;;;;2373419;56;21023;-55
2022/12/22 07:02:10;;;;;;;28.30;16.27;;;10.50;81.80;;;;;;2373885;56;21611;-51
2022/12/22 07:04:37;;;;;;;31.90;18.08;;;10.50;81.80;;;;;;2374061;56;21574;-53
2022/12/22 07:07:04;;;;;;;28.00;16.00;;;10.50;81.70;;;;;;2374012;56;21098;-53
2022/12/22 07:09:31;;;;;;;31.05;17.17;;;10.50;81.80;;;;;;2373096;56;21070;-50
2022/12/22 07:11:58;;;;;;;26.12;14.95;;;10.50;81.80;;;;;;2373424;56;21038;-51
2022/12/22 07:14:25;;;;;;;28.48;17.23;;;10.50;81.90;;;;;;2372934;56;21024;-53
2022/12/22 07:16:52;;;;;;;39.25;19.17;;;10.50;81.70;;;;;;2373547;56;21087;-51
2022/12/22 07:19:20;;;;;;;33.75;18.23;;;10.50;81.80;;;;;;2373729;56;21087;-50
2022/12/22 07:21:47;;;;;;;28.48;16.05;;;10.50;81.70;;;;;;2373674;56;21029;-54
2022/12/22 07:24:21;;;;;;;32.00;16.30;;;10.50;81.70;;;;;;2373780;56;21098;-54
2022/12/22 07:26:49;;;;;;;33.88;18.20;;;10.50;81.70;;;;;;2374614;56;20987;-52
2022/12/22 07:29:16;;;;;;;34.75;18.40;;;10.50;81.70;;;;;;2374183;56;21011;-54
2022/12/22 07:31:43;;;;;;;30.88;17.73;;;10.60;81.80;;;;;;2374358;56;21559;-51
2022/12/22 07:34:10;;;;;;;35.33;18.20;;;10.50;81.70;;;;;;2374587;56;21034;-51
2022/12/22 07:36:37;;;;;;;27.95;16.17;;;10.60;81.80;;;;;;2374704;56;21003;-52
2022/12/22 07:39:05;;;;;;;29.33;16.37;;;10.60;81.80;;;;;;2373895;56;21125;-50
2022/12/22 07:44:30;;;;;;;26.55;15.75;;;10.60;81.80;;;;;;2373106;56;21015;-54
2022/12/22 07:46:58;;;;;;;33.78;16.90;;;10.60;81.50;;;;;;2373422;56;21066;-50
2022/12/22 07:52:10;;;;;;;25.58;15.18;;;10.60;81.60;;;;;;2373711;56;20963;-53
2022/12/22 07:54:37;;;;;;;26.73;15.38;;;10.60;81.60;;;;;;2374263;56;21039;-54
2022/12/22 07:57:06;;;;;;;30.42;17.15;;;10.60;81.70;;;;;;2373807;56;21090;-51
2022/12/22 07:59:33;;;;;;;34.58;17.42;;;10.60;81.70;;;;;;2373371;56;21023;-54
2022/12/22 08:02:01;;;;;;;26.70;15.95;;;10.60;81.60;;;;;;2373881;56;21122;-52
2022/12/22 08:04:28;;;;;;;24.12;14.87;;;10.60;81.80;;;;;;2372983;56;21043;-49
2022/12/22 08:06:55;;;;;;;29.37;17.00;;;10.60;81.60;;;;;;2373170;56;21529;-49
2022/12/22 08:09:22;;;;;;;33.83;17.15;;;10.70;81.70;;;;;;2373298;56;21034;-51
2022/12/22 08:11:49;;;;;;;27.48;16.70;;;10.70;81.70;;;;;;2373169;56;21026;-53
2022/12/22 08:14:16;;;;;;;25.92;15.23;;;10.70;81.50;;;;;;2373738;56;21023;-49
2022/12/22 08:16:43;;;;;;;28.25;16.48;;;10.70;81.60;;;;;;2373613;56;22087;-50
2022/12/22 08:19:11;;;;;;;31.98;17.20;;;10.70;81.60;;;;;;2373307;56;21039;-49
2022/12/22 08:21:38;;;;;;;31.83;16.52;;;10.70;81.70;;;;;;2373968;56;21027;-53
2022/12/22 08:24:07;;;;;;;29.75;17.17;;;10.70;81.70;;;;;;2373669;56;21839;-52
2022/12/22 08:26:39;;;;;;;27.95;15.90;;;10.70;81.60;;;;;;2373919;56;21684;-54
2022/12/22 08:29:11;;;;;;;27.75;16.12;;;10.70;81.60;;;;;;2372938;56;21625;-52
2022/12/22 08:31:39;;;;;;;26.67;16.42;;;10.70;81.60;;;;;;2373096;56;21055;-55
2022/12/22 08:34:09;;;;;;;24.67;14.85;;;10.70;81.60;;;;;;2373707;56;21531;-55
2022/12/22 08:36:41;;;;;;;30.05;16.60;;;10.70;82.40;;;;;;2373920;56;21576;-50
2022/12/22 08:39:09;;;;;;;26.35;15.48;;;10.70;81.70;;;;;;2374454;56;22166;-49
2022/12/22 08:41:52;;;;;;;25.75;15.00;;;10.70;81.70;;;;;;2374368;56;21522;-50
2022/12/22 08:44:22;;;;;;;26.05;14.77;;;10.80;81.70;;;;;;2372828;56;21023;-52
2022/12/22 08:46:50;;;;;;;27.50;14.00;;;10.80;81.50;;;;;;2373558;56;21023;-50
2022/12/22 08:49:17;;;;;;;24.92;14.87;;;10.70;81.50;;;;;;2373809;56;21170;-51
2022/12/22 08:51:45;;;;;;;24.27;14.77;;;10.70;81.60;;;;;;2373792;56;21165;-54
2022/12/22 08:54:13;;;;;;;27.58;13.68;;;10.80;81.70;;;;;;2373648;56;21027;-50
2022/12/22 08:56:40;;;;;;;23.15;13.50;;;10.70;81.70;;;;;;2373790;56;22232;-50
2022/12/22 09:01:49;;;;;;;22.52;13.20;;;10.80;81.80;;;;;;2328437;57;22645;-49
2022/12/22 09:04:18;;;;;;;25.10;13.27;;;10.80;81.80;;;;;;2348621;57;21014;-51
2022/12/22 09:06:45;;;;;;;28.38;13.90;;;10.80;81.70;;;;;;2334193;57;21644;-53
2022/12/22 09:09:14;;;;;;;21.35;12.95;;;10.80;81.60;;;;;;2319781;58;21032;-52
2022/12/22 09:11:42;;;;;;;23.33;12.68;;;10.80;81.60;;;;;;2320129;58;21029;-53
2022/12/22 09:14:09;;;;;;;19.17;12.15;;;10.80;81.60;;;;;;2319293;58;21691;-54
2022/12/22 09:16:37;;;;;;;21.45;12.63;;;10.80;81.60;;;;;;2317611;58;21135;-51
2022/12/22 09:19:05;;;;;;;20.90;12.65;;;10.80;81.50;;;;;;2318684;58;21553;-51
2022/12/22 09:21:33;;;;;;;22.58;12.85;;;10.80;81.30;;;;;;2318476;58;21600;-53
2022/12/22 09:24:00;;;;;;;18.75;12.10;;;10.90;81.40;;;;;;2319588;52;21053;-64
2022/12/22 09:26:29;;;;;;;23.17;13.05;;;10.90;81.40;;;;;;2346912;57;21096;-61
2022/12/22 09:28:56;;;;;;;19.37;13.23;;;10.90;81.60;;;;;;2346112;57;21591;-60
2022/12/22 09:31:25;;;;;;;18.77;11.15;;;10.90;81.60;;;;;;2347638;57;21610;-61
2022/12/22 09:33:53;;;;;;;20.85;12.50;;;10.90;81.70;;;;;;2353858;53;21612;-60
2022/12/22 09:36:23;;;;;;;21.65;12.43;;;10.90;81.60;;;;;;2318374;58;21054;-61
2022/12/22 09:38:50;;;;;;;16.65;10.80;;;10.90;81.70;;;;;;2318723;58;22289;-61
2022/12/22 09:41:22;;;;;;;17.98;11.15;;;11.00;81.80;;;;;;2317749;58;21704;-62
2022/12/22 09:43:49;;;;;;;19.35;11.27;;;11.00;82.00;;;;;;2332764;54;21527;-61
2022/12/22 09:46:22;;;;;;;17.95;10.57;;;11.00;82.00;;;;;;2319410;58;21063;-62
2022/12/22 09:48:51;;;;;;;16.62;11.23;;;11.00;82.00;;;;;;2318746;58;21590;-62
2022/12/22 09:51:18;;;;;;;19.75;11.27;;;11.00;82.00;;;;;;2317544;58;21598;-65
2022/12/22 09:53:50;;;;;;;17.80;10.82;;;11.00;82.20;;;;;;2318971;58;21031;-63
2022/12/22 09:56:25;;;;;;;16.80;10.32;;;11.00;82.00;;;;;;2319873;58;21550;-63
2022/12/22 09:58:52;;;;;;;16.40;10.65;;;11.00;81.90;;;;;;2320115;58;21102;-64
2022/12/22 10:01:36;;;;;;;16.37;11.15;;;11.10;81.80;;;;;;2319888;58;21471;-63
2022/12/22 10:04:09;;;;;;;17.30;10.27;;;11.10;81.90;;;;;;2318969;58;21026;-63
2022/12/22 10:06:43;;;;;;;17.05;10.77;;;11.10;81.80;;;;;;2333489;54;21113;-60
2022/12/22 10:09:17;;;;;;;21.20;11.50;;;11.10;81.40;;;;;;2338039;54;21109;-64
2022/12/22 10:11:51;;;;;;;18.95;12.10;;;11.10;81.50;;;;;;2318313;58;21638;-61
2022/12/22 10:14:18;;;;;;;20.62;12.07;;;11.10;81.50;;;;;;2317704;58;21122;-63
2022/12/22 10:16:46;;;;;;;19.02;11.10;;;11.20;81.60;;;;;;2317686;58;21047;-60
2022/12/22 10:19:15;;;;;;;17.83;11.48;;;11.20;81.50;;;;;;2318054;58;21027;-61
2022/12/22 10:21:42;;;;;;;21.80;12.65;;;11.20;81.60;;;;;;2318047;58;21074;-60
2022/12/22 10:24:24;;;;;;;21.37;12.37;;;11.20;81.50;;;;;;2318093;58;21622;-59
2022/12/22 10:26:55;;;;;;;19.98;11.32;;;11.20;81.40;;;;;;2317416;58;21562;-60
2022/12/22 10:29:23;;;;;;;21.33;11.95;;;11.20;81.30;;;;;;2316640;58;21031;-63
2022/12/22 10:31:59;;;;;;;25.17;12.70;;;11.20;81.20;;;;;;2315979;58;21630;-63
2022/12/22 10:34:27;;;;;;;26.52;13.75;;;11.20;81.30;;;;;;2316212;58;21289;-61
2022/12/22 10:36:58;;;;;;;24.90;13.50;;;11.20;81.00;;;;;;2316682;58;21567;-62
2022/12/22 10:39:28;;;;;;;21.20;12.60;;;11.20;81.30;;;;;;2316885;58;21525;-62
2022/12/22 10:41:59;;;;;;;28.77;13.98;;;11.20;81.50;;;;;;2357352;54;21086;-59
2022/12/22 10:44:30;;;;;;;26.02;13.07;;;11.20;81.30;;;;;;2317767;58;20995;-62
2022/12/22 10:46:59;;;;;;;22.98;12.98;;;11.20;81.30;;;;;;2317838;58;21090;-63
2022/12/22 10:49:29;;;;;;;24.25;14.25;;;11.20;81.50;;;;;;2317203;58;21006;-61
2022/12/22 10:52:09;;;;;;;23.83;13.27;;;11.20;81.80;;;;;;2317766;58;21098;-60
2022/12/22 10:54:37;;;;;;;23.92;13.13;;;11.30;82.10;;;;;;2317975;58;21034;-61
2022/12/22 10:57:19;;;;;;;24.33;14.35;;;11.30;82.20;;;;;;2316838;58;21031;-63
2022/12/22 10:59:49;;;;;;;27.93;15.17;;;11.30;82.20;;;;;;2316488;58;21527;-63
2022/12/22 11:02:27;;;;;;;22.05;12.52;;;11.30;82.50;;;;;;2315841;58;21396;-59
2022/12/22 11:04:59;;;;;;;25.20;12.90;;;11.30;82.00;;;;;;2316857;58;21035;-58
2022/12/22 11:07:29;;;;;;;24.50;13.83;;;11.30;82.00;;;;;;2316690;58;21696;-63
2022/12/22 11:09:57;;;;;;;25.67;14.18;;;11.30;81.80;;;;;;2316859;58;21902;-61
2022/12/22 11:12:37;;;;;;;22.05;12.45;;;11.30;81.80;;;;;;2313363;58;21586;-61
2022/12/22 11:15:13;;;;;;;22.42;13.43;;;11.30;81.80;;;;;;2316066;58;21515;-61
2022/12/22 11:17:50;;;;;;;24.83;14.38;;;11.30;81.80;;;;;;2314508;58;21586;-59
2022/12/22 11:20:45;;;;;;;19.92;11.30;;;11.40;81.90;;;;;;2316399;58;21636;-61
2022/12/22 11:23:20;;;;;;;24.73;13.70;;;11.40;81.60;;;;;;2314771;58;21026;-62
2022/12/22 11:25:59;;;;;;;25.12;15.15;;;11.40;81.30;;;;;;2316843;58;21577;-61
2022/12/22 11:28:44;;;;;;;23.52;14.63;;;11.40;81.20;;;;;;2317701;58;21043;-61
2022/12/22 11:34:08;;;;;;;24.30;14.68;;;11.40;81.30;;;;;;2327024;57;22628;-62
2022/12/22 11:36:44;;;;;;;23.12;13.88;;;11.40;81.40;;;;;;2345712;57;21561;-63
2022/12/22 11:39:14;;;;;;;23.90;14.23;;;11.40;81.40;;;;;;2347033;57;21076;-61
2022/12/22 11:42:00;;;;;;;22.60;13.77;;;11.50;81.50;;;;;;2346445;57;21166;-60
2022/12/22 11:44:49;;;;;;;23.15;13.70;;;11.50;81.20;;;;;;2346488;57;21084;-59
2022/12/22 11:47:29;;;;;;;23.60;14.38;;;11.50;81.00;;;;;;2346478;57;21619;-60
2022/12/22 11:50:12;;;;;;;22.30;13.07;;;11.50;80.40;;;;;;2345514;57;21601;-60
2022/12/22 11:52:51;;;;;;;23.23;13.83;;;11.50;80.20;;;;;;2344799;57;21537;-60
2022/12/22 11:55:27;;;;;;;24.45;13.98;;;11.40;79.70;;;;;;2345817;57;21354;-60
2022/12/22 11:58:03;;;;;;;25.08;14.60;;;11.40;79.50;;;;;;2346493;57;21121;-62
2022/12/22 12:03:35;;;;;;;25.67;15.45;;;11.40;79.80;;;;;;2354937;57;22074;-62
2022/12/22 12:06:33;;;;;;;26.00;14.52;;;11.30;79.70;;;;;;2344871;57;21069;-62
2022/12/22 12:09:14;;;;;;;26.92;15.13;;;11.30;79.70;;;;;;2344729;57;21660;-61
2022/12/22 12:14:24;;;;;;;33.10;20.05;;;11.30;79.60;;;;;;2340259;56;27968;-62
2022/12/22 12:16:57;;;;;;;29.25;16.60;;;11.10;82.70;;;;;;2373464;56;21545;-61
2022/12/22 12:19:45;;;;;;;24.02;14.70;;;11.20;82.70;;;;;;2373923;56;21154;-61
2022/12/22 12:22:24;;;;;;;26.25;14.13;;;11.30;81.10;;;;;;2374256;56;21018;-59
2022/12/22 12:25:00;;;;;;;22.25;11.93;;;11.30;80.60;;;;;;2375469;56;21093;-58
2022/12/22 12:27:45;;;;;;;21.05;11.85;;;11.30;79.60;;;;;;2375581;56;21094;-60
2022/12/22 12:30:15;;;;;;;18.95;11.20;;;11.30;79.00;;;;;;2375607;56;21031;-60
2022/12/22 12:32:47;;;;;;;19.98;11.32;;;11.20;78.80;;;;;;2374328;56;21157;-60
2022/12/22 12:35:32;;;;;;;21.03;11.07;;;11.20;78.80;;;;;;2374724;56;21065;-59
2022/12/22 12:38:05;;;;;;;23.27;11.68;;;11.20;79.10;;;;;;2374295;56;21594;-58
2022/12/22 12:40:38;;;;;;;23.70;11.00;;;11.20;78.90;;;;;;2373959;56;21047;-61
2022/12/22 12:43:06;;;;;;;21.05;11.00;;;11.20;79.00;;;;;;2374005;56;21534;-62
2022/12/22 12:45:39;;;;;;;21.73;11.88;;;11.20;78.80;;;;;;2373670;56;21570;-63
2022/12/22 12:51:46;;;;;;;23.67;12.02;;;11.10;78.60;;;;;;2354658;57;22074;-60
2022/12/22 12:57:01;;;;;;;22.13;13.27;;;11.10;78.40;;;;;;2307765;57;27911;-59
2022/12/22 12:59:47;;;;;;;22.35;12.00;;;10.80;80.30;;;;;;2345753;57;21553;-59
2022/12/22 13:02:35;;;;;;;21.17;10.60;;;10.90;79.80;;;;;;2350106;53;21660;-63
2022/12/22 13:05:27;;;;;;;21.08;11.25;;;10.90;79.10;;;;;;2342854;57;21208;-62
2022/12/22 13:08:22;;;;;;;18.98;10.75;;;11.00;78.60;;;;;;2346211;57;21603;-59
2022/12/22 13:11:18;;;;;;;21.25;11.50;;;11.00;78.60;;;;;;2344222;57;21647;-61
2022/12/22 13:13:50;;;;;;;20.70;11.10;;;11.10;78.40;;;;;;2346621;57;21546;-60
2022/12/22 13:16:43;;;;;;;22.33;11.38;;;11.00;78.30;;;;;;2347334;57;21101;-61
2022/12/22 13:19:22;;;;;;;22.83;11.07;;;11.10;78.70;;;;;;2344735;57;21494;-60
2022/12/22 13:21:50;;;;;;;22.08;10.25;;;11.10;79.50;;;;;;2346449;57;21053;-60
2022/12/22 13:24:23;;;;;;;23.67;11.18;;;11.00;78.80;;;;;;2347360;57;21585;-62
2022/12/22 13:26:54;;;;;;;21.25;11.27;;;11.10;79.10;;;;;;2345951;57;21089;-63
2022/12/22 13:29:29;;;;;;;19.42;9.70;;;11.10;79.20;;;;;;2344497;57;21144;-62
2022/12/22 13:32:00;;;;;;;24.20;10.00;;;11.10;79.20;;;;;;2344657;57;21049;-61
2022/12/22 13:37:19;;;;;;;19.65;9.70;;;11.10;78.90;;;;;;2351230;57;22144;-61
2022/12/22 13:40:10;;;;;;;17.35;9.80;;;11.10;78.70;;;;;;2345257;57;21128;-61
2022/12/22 13:42:40;;;;;;;17.62;8.60;;;11.10;78.80;;;;;;2346804;57;21065;-61
2022/12/22 13:45:16;;;;;;;18.23;7.78;;;11.10;78.30;;;;;;2362117;56;21078;-63
2022/12/22 13:47:45;;;;;;;16.70;9.60;;;11.10;78.10;;;;;;2373452;56;21645;-59
2022/12/22 13:50:22;;;;;;;20.12;8.75;;;11.10;78.10;;;;;;2373840;56;22201;-64
2022/12/22 13:52:50;;;;;;;16.27;8.43;;;11.10;78.00;;;;;;2373851;56;21555;-61
2022/12/22 13:55:22;;;;;;;13.82;7.05;;;11.10;77.90;;;;;;2373067;56;21586;-60
2022/12/22 13:57:51;;;;;;;12.90;7.40;;;11.10;77.80;;;;;;2400910;52;21118;-62
2022/12/22 14:00:21;;;;;;;17.08;7.43;;;11.10;77.40;;;;;;2373706;56;22099;-59
2022/12/22 14:02:49;;;;;;;20.83;8.27;;;11.10;77.50;;;;;;2373669;56;21111;-62
2022/12/22 14:05:17;;;;;;;17.08;7.50;;;11.00;77.30;;;;;;2373790;56;21618;-61
2022/12/22 14:08:01;;;;;;;17.75;7.82;;;11.00;77.30;;;;;;2372227;56;21558;-62
2022/12/22 14:10:32;;;;;;;14.10;6.90;;;11.00;77.20;;;;;;2375001;56;21539;-61
2022/12/22 14:13:05;;;;;;;16.55;7.22;;;11.00;77.00;;;;;;2374865;56;21067;-61
2022/12/22 14:15:32;;;;;;;14.02;7.05;;;11.00;76.80;;;;;;2375520;56;21114;-62
2022/12/22 14:18:00;;;;;;;11.20;7.03;;;11.00;76.60;;;;;;2374079;56;21082;-64
2022/12/22 14:20:31;;;;;;;11.63;6.35;;;10.90;76.70;;;;;;2373324;56;21059;-60
2022/12/22 14:23:06;;;;;;;14.25;6.10;;;10.90;76.50;;;;;;2373775;56;21047;-62
2022/12/22 14:25:35;;;;;;;19.17;6.60;;;10.90;76.50;;;;;;2372435;56;21115;-61
2022/12/22 14:28:04;;;;;;;16.98;7.40;;;10.90;76.30;;;;;;2373390;56;22314;-62
2022/12/22 14:30:36;;;;;;;15.27;6.15;;;10.90;76.20;;;;;;2373713;56;21598;-62
2022/12/22 14:33:17;;;;;;;13.40;5.72;;;10.90;76.20;;;;;;2373756;56;21043;-63
2022/12/22 14:35:44;;;;;;;12.32;5.87;;;10.80;76.40;;;;;;2372535;56;21043;-62
2022/12/22 14:38:21;;;;;;;19.40;7.60;;;10.80;76.50;;;;;;2372705;56;21121;-61
2022/12/22 14:40:48;;;;;;;19.23;5.78;;;10.70;76.60;;;;;;2373173;56;21117;-62
2022/12/22 14:43:25;;;;;;;12.52;5.57;;;10.70;76.40;;;;;;2372608;56;21332;-60
2022/12/22 14:46:02;;;;;;;16.60;6.15;;;10.70;76.50;;;;;;2371796;56;21532;-64
2022/12/22 14:48:33;;;;;;;17.25;6.95;;;10.70;76.20;;;;;;2370572;56;21547;-65
2022/12/22 14:51:02;;;;;;;16.65;6.12;;;10.60;76.30;;;;;;2371910;56;21526;-57
2022/12/22 14:53:37;;;;;;;15.93;6.18;;;10.60;76.20;;;;;;2372801;56;22158;-57
2022/12/22 14:56:09;;;;;;;13.68;5.93;;;10.60;76.20;;;;;;2372752;56;21078;-63
2022/12/22 14:58:40;;;;;;;10.35;4.85;;;10.60;76.10;;;;;;2373180;56;21804;-63
2022/12/22 15:01:17;;;;;;;15.15;6.12;;;10.50;76.00;;;;;;2370972;56;21086;-60
2022/12/22 15:03:55;;;;;;;12.50;5.28;;;10.50;75.90;;;;;;2373440;56;21102;-58
2022/12/22 15:06:31;;;;;;;11.98;5.25;;;10.50;75.90;;;;;;2374666;56;21098;-62
2022/12/22 15:09:26;;;;;;;16.67;6.65;;;10.50;75.70;;;;;;2374680;56;21515;-61
2022/12/22 15:12:00;;;;;;;18.00;8.32;;;10.40;75.70;;;;;;2374208;56;21059;-61
2022/12/22 15:14:31;;;;;;;19.08;8.30;;;10.40;75.60;;;;;;2421707;52;21066;-64
2022/12/22 15:17:00;;;;;;;17.08;6.12;;;10.40;75.70;;;;;;2373728;56;21606;-60
2022/12/22 15:19:30;;;;;;;18.67;7.35;;;10.40;75.80;;;;;;2374064;56;21031;-63
2022/12/22 15:21:58;;;;;;;17.52;7.37;;;10.30;75.80;;;;;;2373749;56;21617;-63
2022/12/22 15:24:25;;;;;;;15.63;7.28;;;10.30;75.40;;;;;;2410387;52;21050;-60
2022/12/22 15:26:52;;;;;;;15.45;7.03;;;10.30;75.80;;;;;;2374390;56;21527;-59
2022/12/22 15:29:19;;;;;;;15.63;6.80;;;10.20;75.70;;;;;;2374182;56;21033;-62
2022/12/22 15:31:47;;;;;;;15.75;7.00;;;10.20;75.60;;;;;;2373091;56;21059;-59
2022/12/22 15:34:21;;;;;;;16.23;6.32;;;10.20;75.70;;;;;;2408292;52;21106;-61
2022/12/22 15:36:48;;;;;;;17.67;7.25;;;10.20;76.00;;;;;;2373757;56;21570;-62
2022/12/22 15:39:17;;;;;;;14.20;6.25;;;10.10;76.10;;;;;;2373706;56;21053;-61
2022/12/22 15:41:45;;;;;;;20.75;7.10;;;10.10;76.30;;;;;;2373227;56;21062;-62
2022/12/22 15:44:12;;;;;;;21.98;7.60;;;10.10;76.50;;;;;;2373116;56;21605;-61
2022/12/22 15:46:42;;;;;;;14.55;7.22;;;10.10;76.70;;;;;;2373577;56;21590;-61
2022/12/22 15:49:13;;;;;;;14.05;6.62;;;10.10;76.80;;;;;;2374800;56;21630;-62
2022/12/22 15:51:40;;;;;;;21.02;8.45;;;10.00;76.80;;;;;;2374600;56;21031;-63
2022/12/22 15:54:12;;;;;;;32.85;17.62;;;10.00;76.90;;;;;;2374878;56;21019;-62
2022/12/22 15:56:40;;;;;;;40.45;19.83;;;10.00;77.00;;;;;;2373048;56;21058;-62
2022/12/22 15:59:13;;;;;;;36.58;15.30;;;10.00;77.00;;;;;;2373278;56;21527;-61
2022/12/22 16:01:40;;;;;;;25.35;11.88;;;10.00;77.20;;;;;;2373350;56;21114;-62
2022/12/22 16:04:07;;;;;;;22.67;10.30;;;10.00;77.30;;;;;;2373185;56;21047;-62
2022/12/22 16:06:34;;;;;;;20.35;8.45;;;10.00;77.40;;;;;;2373816;56;21051;-63
2022/12/22 16:09:04;;;;;;;25.20;10.60;;;10.00;77.30;;;;;;2373859;56;21563;-61
2022/12/22 16:11:32;;;;;;;18.60;9.18;;;10.00;77.40;;;;;;2374365;56;21586;-58
2022/12/22 16:14:00;;;;;;;24.05;9.48;;;10.00;77.50;;;;;;2373008;56;21039;-64
2022/12/22 16:16:27;;;;;;;22.02;9.30;;;10.10;77.60;;;;;;2373841;56;21582;-62
2022/12/22 16:18:54;;;;;;;16.23;8.02;;;10.10;77.70;;;;;;2373640;56;21039;-61
2022/12/22 16:21:28;;;;;;;23.33;8.52;;;10.10;77.80;;;;;;2373618;56;21038;-62
2022/12/22 16:23:55;;;;;;;24.10;10.80;;;10.10;77.90;;;;;;2373748;56;21539;-62
2022/12/22 16:26:23;;;;;;;24.73;10.13;;;10.00;77.90;;;;;;2373023;56;22191;-63
2022/12/22 16:28:50;;;;;;;19.92;9.02;;;10.10;78.10;;;;;;2373421;56;21050;-61
2022/12/22 16:31:20;;;;;;;23.25;9.25;;;10.10;78.10;;;;;;2373234;56;21110;-63
2022/12/22 16:33:48;;;;;;;22.83;9.55;;;10.00;78.00;;;;;;2373668;56;21110;-62
2022/12/22 16:36:15;;;;;;;26.40;10.05;;;10.10;78.00;;;;;;2374717;56;21559;-61
2022/12/22 16:38:44;;;;;;;24.42;11.60;;;10.10;78.00;;;;;;2374836;56;21504;-59
2022/12/22 16:41:19;;;;;;;17.85;9.98;;;10.00;77.90;;;;;;2374267;56;21102;-57
2022/12/22 16:43:47;;;;;;;23.50;11.45;;;10.00;77.90;;;;;;2627970;52;21014;-59
2022/12/22 16:46:16;;;;;;;18.52;9.48;;;10.00;78.00;;;;;;2374595;56;21162;-60
2022/12/22 16:48:47;;;;;;;24.67;10.20;;;10.00;79.10;;;;;;2626876;52;21617;-63
2022/12/22 16:51:22;;;;;;;16.80;9.55;;;10.10;79.40;;;;;;2373411;56;21035;-63